createdAt,value
2018-03-20T00:00:03.699Z,38.50
2018-03-20T00:02:31.967Z,38.60
2018-03-20T00:05:01.029Z,38.60
2018-03-20T00:07:29.358Z,38.60
2018-03-20T00:09:57.611Z,38.60
2018-03-20T00:12:25.905Z,38.50
2018-03-20T00:14:54.207Z,38.50
2018-03-20T00:17:23.262Z,38.50
2018-03-20T00:19:51.555Z,38.50
2018-03-20T00:22:19.824Z,38.40
2018-03-20T00:24:48.147Z,38.40
2018-03-20T00:27:17.147Z,38.30
2018-03-20T00:29:45.420Z,38.30
2018-03-20T00:32:13.696Z,38.20
2018-03-20T00:34:41.956Z,38.30
2018-03-20T00:37:11.020Z,38.30
2018-03-20T00:39:39.350Z,38.20
2018-03-20T00:42:07.660Z,38.30
2018-03-20T00:44:35.952Z,38.40
2018-03-20T00:47:04.264Z,38.40
2018-03-20T00:49:32.557Z,38.50
2018-03-20T00:52:00.815Z,38.80
2018-03-20T00:54:29.876Z,38.60
2018-03-20T00:56:58.170Z,38.60
2018-03-20T00:59:26.440Z,38.70
2018-03-20T01:01:54.691Z,38.70
2018-03-20T01:04:22.993Z,39.10
2018-03-20T01:06:51.292Z,39.00
2018-03-20T01:09:20.345Z,39.20
2018-03-20T01:11:48.586Z,39.20
2018-03-20T01:14:16.883Z,39.30
2018-03-20T01:16:45.177Z,39.40
2018-03-20T01:19:13.486Z,39.20
2018-03-20T01:21:41.754Z,39.00
2018-03-20T01:24:09.997Z,39.20
2018-03-20T01:26:38.286Z,38.80
2018-03-20T01:29:06.583Z,38.80
2018-03-20T01:31:34.832Z,39.00
2018-03-20T01:34:03.157Z,39.10
2018-03-20T01:36:32.202Z,39.00
2018-03-20T01:39:00.517Z,39.00
2018-03-20T01:41:29.552Z,38.70
2018-03-20T01:43:57.871Z,39.10
2018-03-20T01:46:26.166Z,38.90
2018-03-20T01:48:54.452Z,39.00
2018-03-20T01:51:23.455Z,38.60
2018-03-20T01:53:51.759Z,38.50
2018-03-20T01:56:20.062Z,38.30
2018-03-20T01:58:48.316Z,38.10
2018-03-20T02:01:16.626Z,38.40
2018-03-20T02:03:44.919Z,38.20
2018-03-20T02:06:13.250Z,38.40
2018-03-20T02:08:41.501Z,38.60
2018-03-20T02:11:09.828Z,38.90
2018-03-20T02:13:38.082Z,38.80
2018-03-20T02:16:06.359Z,38.80
2018-03-20T02:18:34.665Z,38.80
2018-03-20T02:21:02.913Z,38.60
2018-03-20T02:23:31.185Z,38.50
2018-03-20T02:25:59.446Z,38.60
2018-03-20T02:28:27.803Z,38.50
2018-03-20T02:30:56.834Z,38.40
2018-03-20T02:33:25.141Z,38.40
2018-03-20T02:35:53.404Z,38.30
2018-03-20T02:38:21.655Z,38.30
2018-03-20T02:40:49.925Z,38.40
2018-03-20T02:43:18.167Z,38.60
2018-03-20T02:45:47.245Z,38.40
2018-03-20T02:48:15.505Z,38.30
2018-03-20T02:50:43.818Z,38.30
2018-03-20T02:53:12.841Z,38.70
2018-03-20T02:55:41.166Z,38.70
2018-03-20T02:58:09.465Z,38.50
2018-03-20T03:00:38.518Z,38.70
2018-03-20T03:03:06.785Z,38.70
2018-03-20T03:05:35.841Z,39.40
2018-03-20T03:08:04.917Z,39.20
2018-03-20T03:10:33.205Z,39.20
2018-03-20T03:13:02.279Z,38.80
2018-03-20T03:15:31.420Z,39.00
2018-03-20T03:17:59.714Z,39.00
2018-03-20T03:20:28.040Z,39.00
2018-03-20T03:22:56.327Z,39.10
2018-03-20T03:25:24.594Z,39.40
2018-03-20T03:27:52.849Z,39.50
2018-03-20T03:30:21.176Z,39.60
2018-03-20T03:32:49.421Z,39.40
2018-03-20T03:35:18.518Z,39.50
2018-03-20T03:37:47.605Z,40.00
2018-03-20T03:40:15.942Z,40.00
2018-03-20T03:42:44.173Z,40.10
2018-03-20T03:45:13.197Z,39.50
2018-03-20T03:47:41.465Z,39.50
2018-03-20T03:50:09.775Z,39.90
2018-03-20T03:52:38.093Z,40.00
2018-03-20T03:55:06.358Z,40.00
2018-03-20T03:57:34.634Z,40.00
2018-03-20T04:00:02.931Z,40.50
2018-03-20T04:02:31.173Z,40.40
2018-03-20T04:04:59.495Z,40.20
2018-03-20T04:07:28.579Z,40.80
2018-03-20T04:09:57.656Z,40.80
2018-03-20T04:12:25.904Z,40.70
2018-03-20T04:14:54.187Z,40.70
2018-03-20T04:17:22.493Z,40.90
2018-03-20T04:19:50.768Z,41.10
2018-03-20T04:22:19.082Z,41.20
2018-03-20T04:24:47.362Z,41.30
2018-03-20T04:27:15.624Z,40.90
2018-03-20T04:29:44.687Z,41.00
2018-03-20T04:32:12.973Z,40.90
2018-03-20T04:34:41.289Z,41.40
2018-03-20T04:37:09.546Z,41.40
2018-03-20T04:39:38.620Z,41.60
2018-03-20T04:42:06.892Z,41.60
2018-03-20T04:44:35.144Z,41.40
2018-03-20T04:47:03.472Z,40.90
2018-03-20T04:49:32.506Z,41.30
2018-03-20T04:52:00.810Z,41.30
2018-03-20T04:54:29.081Z,41.40
2018-03-20T04:56:57.335Z,41.60
2018-03-20T04:59:25.610Z,41.60
2018-03-20T05:01:53.915Z,41.70
2018-03-20T05:04:22.216Z,41.60
2018-03-20T05:06:50.497Z,41.60
2018-03-20T05:09:19.571Z,41.90
2018-03-20T05:11:47.848Z,41.50
2018-03-20T05:14:17.616Z,41.60
2018-03-20T05:16:45.897Z,41.60
2018-03-20T05:19:25.925Z,41.80
2018-03-20T05:21:59.881Z,41.90
2018-03-20T05:24:28.196Z,42.50
2018-03-20T05:26:57.234Z,42.10
2018-03-20T05:29:25.513Z,42.10
2018-03-20T05:31:53.844Z,41.80
2018-03-20T05:34:22.894Z,42.30
2018-03-20T05:36:51.180Z,42.20
2018-03-20T05:39:19.457Z,42.00
2018-03-20T05:41:47.788Z,42.10
2018-03-20T05:44:16.806Z,42.10
2018-03-20T06:00:04.836Z,42.80
2018-03-20T06:02:33.098Z,44.10
2018-03-20T06:05:01.374Z,43.10
2018-03-20T06:07:29.658Z,42.50
2018-03-20T06:09:57.986Z,42.10
2018-03-20T06:12:26.239Z,42.90
2018-03-20T06:14:54.567Z,42.70
2018-03-20T06:17:23.592Z,42.60
2018-03-20T06:19:51.851Z,42.50
2018-03-20T06:22:20.140Z,42.20
2018-03-20T06:24:48.398Z,42.60
2018-03-20T06:27:16.677Z,43.30
2018-03-20T06:29:44.993Z,42.90
2018-03-20T06:32:13.341Z,43.00
2018-03-20T06:34:41.643Z,42.90
2018-03-20T06:37:09.918Z,42.40
2018-03-20T06:39:38.200Z,42.70
2018-03-20T06:42:06.513Z,42.10
2018-03-20T06:44:34.798Z,42.10
2018-03-20T06:47:03.066Z,41.90
2018-03-20T06:49:31.360Z,42.10
2018-03-20T06:52:00.388Z,41.70
2018-03-20T06:54:28.695Z,41.70
2018-03-20T06:56:56.993Z,41.50
2018-03-20T06:59:26.073Z,41.10
2018-03-20T07:01:54.392Z,41.10
2018-03-20T07:04:22.705Z,41.50
2018-03-20T07:06:50.974Z,41.10
2018-03-20T07:09:19.241Z,41.20
2018-03-20T07:11:47.584Z,41.20
2018-03-20T07:14:16.654Z,41.10
2018-03-20T07:16:44.941Z,41.00
2018-03-20T07:19:13.282Z,40.80
2018-03-20T07:21:41.605Z,40.60
2018-03-20T07:24:09.911Z,40.30
2018-03-20T07:26:38.195Z,40.30
2018-03-20T07:29:06.514Z,40.00
2018-03-20T07:31:34.780Z,40.00
2018-03-20T07:34:03.067Z,40.00
2018-03-20T07:36:31.390Z,40.10
2018-03-20T07:38:59.709Z,40.10
2018-03-20T07:41:28.022Z,40.20
2018-03-20T07:43:57.024Z,40.30
2018-03-20T07:46:26.056Z,40.40
2018-03-20T07:48:54.334Z,40.40
2018-03-20T07:51:22.651Z,40.40
2018-03-20T07:53:50.913Z,40.10
2018-03-20T07:56:19.153Z,40.00
2018-03-20T07:58:47.463Z,40.10
2018-03-20T08:01:15.733Z,40.00
2018-03-20T08:03:43.995Z,39.90
2018-03-20T08:06:12.246Z,39.80
2018-03-20T08:08:40.527Z,39.90
2018-03-20T08:11:08.838Z,39.80
2018-03-20T08:13:37.178Z,39.50
2018-03-20T08:16:06.236Z,39.30
2018-03-20T08:18:34.486Z,39.30
2018-03-20T08:21:02.778Z,39.60
2018-03-20T08:23:31.083Z,39.70
2018-03-20T08:26:00.138Z,39.40
2018-03-20T08:28:28.414Z,39.40
2018-03-20T08:30:56.693Z,39.30
2018-03-20T08:33:24.940Z,39.40
2018-03-20T08:35:53.180Z,39.50
2018-03-20T08:38:22.267Z,39.80
2018-03-20T08:40:50.564Z,39.70
2018-03-20T08:43:19.607Z,38.60
2018-03-20T08:45:47.847Z,38.50
2018-03-20T08:48:16.179Z,38.50
2018-03-20T08:50:44.507Z,38.90
2018-03-20T08:53:12.803Z,39.10
2018-03-20T08:55:41.112Z,39.10
2018-03-20T08:58:09.406Z,39.30
2018-03-20T09:00:38.466Z,38.50
2018-03-20T09:03:06.736Z,38.50
2018-03-20T09:05:34.990Z,38.70
2018-03-20T09:08:03.389Z,39.00
2018-03-20T09:10:31.686Z,38.50
2018-03-20T09:12:59.957Z,38.60
2018-03-20T09:15:28.248Z,38.50
2018-03-20T09:17:56.527Z,37.90
2018-03-20T09:20:25.185Z,38.60
2018-03-20T09:22:53.476Z,38.10
2018-03-20T09:25:21.783Z,38.00
2018-03-20T09:27:50.814Z,37.60
2018-03-20T09:30:19.119Z,37.20
2018-03-20T09:32:47.446Z,37.60
2018-03-20T09:35:16.540Z,36.60
2018-03-20T09:37:45.571Z,36.70
2018-03-20T09:40:13.861Z,36.70
2018-03-20T09:42:42.131Z,37.40
2018-03-20T09:45:10.449Z,37.50
2018-03-20T09:47:38.754Z,38.50
2018-03-20T09:50:07.022Z,37.50
2018-03-20T09:52:36.092Z,37.70
2018-03-20T09:55:04.373Z,37.70
2018-03-20T09:57:32.624Z,37.10
2018-03-20T10:00:00.874Z,36.50
2018-03-20T10:02:29.140Z,37.00
2018-03-20T10:04:57.412Z,37.20
2018-03-20T10:07:26.447Z,37.20
2018-03-20T10:09:54.703Z,37.20
2018-03-20T10:12:23.017Z,35.90
2018-03-20T10:14:51.279Z,34.70
2018-03-20T10:17:19.580Z,35.70
2018-03-20T10:19:47.838Z,36.60
2018-03-20T10:22:16.157Z,36.00
2018-03-20T10:24:45.239Z,36.90
2018-03-20T10:27:13.492Z,36.90
2018-03-20T10:29:41.821Z,37.00
2018-03-20T10:32:10.111Z,35.90
2018-03-20T10:34:39.117Z,34.70
2018-03-20T10:37:07.424Z,34.70
2018-03-20T10:39:35.681Z,34.30
2018-03-20T10:42:03.962Z,34.50
2018-03-20T10:44:32.206Z,34.00
2018-03-20T10:47:00.496Z,36.70
2018-03-20T10:49:28.868Z,35.50
2018-03-20T10:51:57.988Z,34.20
2018-03-20T10:54:26.293Z,34.20
2018-03-20T10:56:54.561Z,35.00
2018-03-20T10:59:22.879Z,31.60
2018-03-20T11:01:51.126Z,32.70
2018-03-20T11:04:19.395Z,32.50
2018-03-20T11:06:47.707Z,33.30
2018-03-20T11:09:16.031Z,32.80
2018-03-20T11:11:44.291Z,34.90
2018-03-20T11:14:12.525Z,33.30
2018-03-20T11:16:41.536Z,32.50
2018-03-20T11:19:09.790Z,32.60
2018-03-20T11:21:38.801Z,34.00
2018-03-20T11:24:07.044Z,34.00
2018-03-20T11:26:35.343Z,33.70
2018-03-20T11:29:04.347Z,32.80
2018-03-20T11:31:32.675Z,32.80
2018-03-20T11:34:00.971Z,33.30
2018-03-20T11:36:29.235Z,33.00
2018-03-20T11:38:57.540Z,33.00
2018-03-20T11:41:26.635Z,32.60
2018-03-20T11:43:55.666Z,33.50
2018-03-20T11:46:23.925Z,33.50
2018-03-20T11:48:52.243Z,34.20
2018-03-20T11:51:20.505Z,33.00
2018-03-20T11:53:48.857Z,33.70
2018-03-20T11:56:17.156Z,32.90
2018-03-20T11:58:45.494Z,33.50
2018-03-20T12:01:14.557Z,34.40
2018-03-20T12:03:42.870Z,34.40
2018-03-20T12:06:11.950Z,33.30
2018-03-20T12:08:51.062Z,33.30
2018-03-20T12:11:19.357Z,34.50
2018-03-20T12:13:47.656Z,35.20
2018-03-20T12:16:15.928Z,34.40
2018-03-20T12:18:45.018Z,35.60
2018-03-20T12:21:14.116Z,35.70
2018-03-20T12:23:43.190Z,36.50
2018-03-20T12:26:11.491Z,36.50
2018-03-20T12:28:40.509Z,37.10
2018-03-20T12:31:08.746Z,37.00
2018-03-20T12:33:37.002Z,37.60
2018-03-20T12:36:05.294Z,38.00
2018-03-20T12:38:33.594Z,38.40
2018-03-20T12:41:01.924Z,39.40
2018-03-20T12:43:30.172Z,40.10
2018-03-20T12:45:58.470Z,40.50
2018-03-20T12:48:26.796Z,41.10
2018-03-20T12:50:55.056Z,41.40
2018-03-20T12:53:24.102Z,42.40
2018-03-20T12:55:52.376Z,42.40
2018-03-20T12:58:20.670Z,42.80
2018-03-20T13:00:48.999Z,42.90
2018-03-20T13:03:18.048Z,42.90
2018-03-20T13:05:46.581Z,42.90
2018-03-20T13:08:14.855Z,43.10
2018-03-20T13:10:43.882Z,44.50
2018-03-20T13:13:12.222Z,44.40
2018-03-20T13:15:40.504Z,43.60
2018-03-20T13:18:09.696Z,43.70
2018-03-20T13:20:38.026Z,43.70
2018-03-20T13:23:06.329Z,43.60
2018-03-20T13:25:34.639Z,43.10
2018-03-20T13:28:03.711Z,44.20
2018-03-20T13:30:32.753Z,45.10
2018-03-20T13:33:01.018Z,44.50
2018-03-20T13:35:29.292Z,44.60
2018-03-20T13:37:57.554Z,44.20
2018-03-20T13:40:26.128Z,44.80
2018-03-20T13:42:55.218Z,44.70
2018-03-20T13:45:23.497Z,44.70
2018-03-20T13:47:51.838Z,45.10
2018-03-20T13:50:20.154Z,45.30
2018-03-20T13:52:49.448Z,45.70
2018-03-20T13:55:17.511Z,45.70
2018-03-20T13:57:45.749Z,45.70
2018-03-20T14:00:14.053Z,45.70
2018-03-20T14:02:42.669Z,45.50
2018-03-20T14:05:12.508Z,45.20
2018-03-20T14:07:40.909Z,45.20
2018-03-20T14:10:09.224Z,45.50
2018-03-20T14:12:37.505Z,45.80
2018-03-20T14:15:05.757Z,45.70
2018-03-20T14:17:34.052Z,46.00
2018-03-20T14:20:02.294Z,46.20
2018-03-20T14:22:30.631Z,46.40
2018-03-20T14:24:59.678Z,46.50
2018-03-20T14:27:28.075Z,46.60
2018-03-20T14:29:56.336Z,46.60
2018-03-20T14:32:24.604Z,46.60
2018-03-20T14:34:52.862Z,46.40
2018-03-20T14:37:21.101Z,46.90
2018-03-20T14:39:50.148Z,47.50
2018-03-20T14:42:18.430Z,47.50
2018-03-20T14:44:46.692Z,47.30
2018-03-20T14:47:14.987Z,46.90
2018-03-20T14:49:43.255Z,47.90
2018-03-20T14:52:11.559Z,47.30
2018-03-20T14:54:39.810Z,47.60
2018-03-20T14:57:08.061Z,47.50
2018-03-20T14:59:36.363Z,48.20
2018-03-20T15:02:04.614Z,48.10
2018-03-20T15:04:32.927Z,48.10
2018-03-20T15:07:01.254Z,48.30
2018-03-20T15:09:29.502Z,47.60
2018-03-20T15:11:57.822Z,47.80
2018-03-20T15:14:26.094Z,47.80
2018-03-20T15:16:54.333Z,48.00
2018-03-20T15:19:22.652Z,48.00
2018-03-20T15:21:50.948Z,48.50
2018-03-20T15:24:19.202Z,48.70
2018-03-20T15:26:47.518Z,48.50
2018-03-20T15:29:15.809Z,48.60
2018-03-20T15:31:44.393Z,48.40
2018-03-20T15:34:12.678Z,49.00
2018-03-20T15:36:41.738Z,49.60
2018-03-20T15:39:10.019Z,49.60
2018-03-20T15:41:38.319Z,48.90
2018-03-20T15:44:06.567Z,49.00
2018-03-20T15:46:34.846Z,49.10
2018-03-20T15:49:03.143Z,49.00
2018-03-20T15:51:31.516Z,49.70
2018-03-20T15:53:59.818Z,49.20
2018-03-20T15:56:28.860Z,48.70
2018-03-20T15:58:57.122Z,48.60
2018-03-20T16:01:25.392Z,48.90
2018-03-20T16:03:53.697Z,49.50
2018-03-20T16:06:21.977Z,49.30
2018-03-20T16:08:50.262Z,49.30
2018-03-20T16:11:18.560Z,49.60
2018-03-20T16:13:46.863Z,49.40
2018-03-20T16:16:15.921Z,49.60
2018-03-20T16:18:44.203Z,49.60
2018-03-20T16:21:12.504Z,49.20
2018-03-20T16:23:41.516Z,50.00
2018-03-20T16:26:09.854Z,50.00
2018-03-20T16:28:38.159Z,50.20
2018-03-20T16:31:07.284Z,50.40
2018-03-20T16:33:35.561Z,50.40
2018-03-20T16:36:03.858Z,49.60
2018-03-20T16:38:32.161Z,50.10
2018-03-20T16:41:00.430Z,49.70
2018-03-20T16:43:28.701Z,50.20
2018-03-20T16:45:57.039Z,50.30
2018-03-20T16:48:26.076Z,51.30
2018-03-20T16:50:55.166Z,51.30
2018-03-20T16:53:23.422Z,50.30
2018-03-20T16:55:51.684Z,50.60
2018-03-20T16:58:19.992Z,50.80
2018-03-20T17:00:48.339Z,50.50
2018-03-20T17:03:16.599Z,51.00
2018-03-20T17:05:44.916Z,50.40
2018-03-20T17:08:13.203Z,50.60
2018-03-20T17:10:41.463Z,50.70
2018-03-20T17:13:09.740Z,50.20
2018-03-20T17:15:38.027Z,50.50
2018-03-20T17:18:06.357Z,51.30
2018-03-20T17:20:34.635Z,51.80
2018-03-20T17:23:03.967Z,51.20
2018-03-20T17:25:32.236Z,51.20
2018-03-20T17:28:00.518Z,51.90
2018-03-20T17:30:28.818Z,51.40
2018-03-20T17:32:57.102Z,51.40
2018-03-20T17:35:25.353Z,51.30
2018-03-20T17:37:53.656Z,53.00
2018-03-20T17:40:21.949Z,52.00
2018-03-20T17:42:50.273Z,52.20
2018-03-20T17:45:18.539Z,52.50
2018-03-20T17:47:46.818Z,52.30
2018-03-20T17:50:15.100Z,52.70
2018-03-20T17:52:43.426Z,52.10
2018-03-20T17:55:11.723Z,52.50
2018-03-20T17:57:40.060Z,52.90
2018-03-20T18:00:08.373Z,53.00
2018-03-20T18:02:36.702Z,53.70
2018-03-20T18:05:05.057Z,53.60
2018-03-20T18:07:33.356Z,54.40
2018-03-20T18:10:01.677Z,53.20
2018-03-20T18:12:29.987Z,53.10
2018-03-20T18:14:58.306Z,53.20
2018-03-20T18:17:27.315Z,54.10
2018-03-20T18:19:55.580Z,54.10
2018-03-20T18:22:23.879Z,53.60
2018-03-20T18:24:52.160Z,53.00
2018-03-20T18:27:20.466Z,53.10
2018-03-20T18:29:48.706Z,53.10
2018-03-20T18:32:17.060Z,53.10
2018-03-20T18:34:45.339Z,52.90
2018-03-20T18:37:13.610Z,54.00
2018-03-20T18:39:41.913Z,53.30
2018-03-20T18:42:10.164Z,53.50
2018-03-20T18:44:38.425Z,53.70
2018-03-20T18:47:06.762Z,54.00
2018-03-20T18:49:35.084Z,53.60
2018-03-20T18:52:03.319Z,53.00
2018-03-20T18:54:32.372Z,53.00
2018-03-20T18:57:00.687Z,52.90
2018-03-20T18:59:29.695Z,53.60
2018-03-20T19:01:58.728Z,53.80
2018-03-20T19:04:26.969Z,53.70
2018-03-20T19:06:55.988Z,53.10
2018-03-20T19:09:24.259Z,53.10
2018-03-20T19:11:52.600Z,53.90
2018-03-20T19:14:21.596Z,53.70
2018-03-20T19:16:50.656Z,54.70
2018-03-20T19:19:18.926Z,54.20
2018-03-20T19:21:47.235Z,54.60
2018-03-20T19:24:15.481Z,53.50
2018-03-20T19:26:43.722Z,54.00
2018-03-20T19:29:12.037Z,54.20
2018-03-20T19:31:40.296Z,53.70
2018-03-20T19:34:08.607Z,53.30
2018-03-20T19:36:36.882Z,53.40
2018-03-20T19:39:05.273Z,53.30
2018-03-20T19:41:33.578Z,53.80
2018-03-20T19:44:02.656Z,53.10
2018-03-20T19:46:31.742Z,53.30
2018-03-20T19:49:00.048Z,53.30
2018-03-20T19:51:28.357Z,53.30
2018-03-20T19:53:56.641Z,53.40
2018-03-20T19:56:24.928Z,53.60
2018-03-20T19:58:53.234Z,53.60
2018-03-20T20:01:22.284Z,53.10
2018-03-20T20:03:50.618Z,53.10
2018-03-20T20:06:19.643Z,53.50
2018-03-20T20:08:47.934Z,53.40
2018-03-20T20:11:16.187Z,53.00
2018-03-20T20:13:44.518Z,53.60
2018-03-20T20:16:12.759Z,53.00
2018-03-20T20:18:41.049Z,52.90
2018-03-20T20:21:09.354Z,53.40
2018-03-20T20:23:37.604Z,52.70
2018-03-20T20:26:05.875Z,53.10
2018-03-20T20:28:34.172Z,52.90
2018-03-20T20:31:03.991Z,53.50
2018-03-20T20:33:32.239Z,53.50
2018-03-20T20:36:00.565Z,53.10
2018-03-20T20:38:28.854Z,52.80
2018-03-20T20:40:57.210Z,53.00
2018-03-20T20:43:25.528Z,52.60
2018-03-20T20:45:53.793Z,53.00
2018-03-20T20:48:22.082Z,52.70
2018-03-20T20:50:50.342Z,52.50
2018-03-20T20:53:18.669Z,52.10
2018-03-20T20:55:46.905Z,52.30
2018-03-20T20:58:15.162Z,52.40
2018-03-20T21:00:43.463Z,52.10
2018-03-20T21:03:11.765Z,52.00
2018-03-20T21:05:40.026Z,52.60
2018-03-20T21:08:08.331Z,51.90
2018-03-20T21:10:36.715Z,52.30
2018-03-20T21:13:05.260Z,51.90
2018-03-20T21:15:33.512Z,52.10
2018-03-20T21:18:01.783Z,52.60
2018-03-20T21:20:30.854Z,51.70
2018-03-20T21:22:59.118Z,51.60
2018-03-20T21:25:27.408Z,51.20
2018-03-20T21:27:55.722Z,52.10
2018-03-20T21:30:24.094Z,52.10
2018-03-20T21:32:52.422Z,51.90
2018-03-20T21:35:20.681Z,51.90
2018-03-20T21:37:48.979Z,52.80
2018-03-20T21:40:17.292Z,52.60
2018-03-20T21:42:46.338Z,52.60
2018-03-20T21:45:14.595Z,52.50
2018-03-20T21:47:42.838Z,52.40
2018-03-20T21:50:12.670Z,52.40
2018-03-20T21:52:41.004Z,52.40
2018-03-20T21:55:09.302Z,52.70
2018-03-20T21:57:38.403Z,52.10
2018-03-20T22:00:07.428Z,52.90
2018-03-20T22:02:35.773Z,52.80
2018-03-20T22:05:04.802Z,52.30
2018-03-20T22:07:33.038Z,52.30
2018-03-20T22:10:02.148Z,52.60
2018-03-20T22:12:31.198Z,53.60
2018-03-20T22:14:59.510Z,53.60
2018-03-20T22:17:27.774Z,52.90
2018-03-20T22:19:56.067Z,52.90
2018-03-20T22:22:25.138Z,52.40
2018-03-20T22:24:53.381Z,52.40
2018-03-20T22:27:21.648Z,52.70
2018-03-20T22:29:49.944Z,52.80
2018-03-20T22:32:18.235Z,52.60
2018-03-20T22:34:46.518Z,52.50
2018-03-20T22:37:14.802Z,53.80
2018-03-20T22:39:43.109Z,52.60
2018-03-20T22:42:11.423Z,52.60
2018-03-20T22:44:39.697Z,52.80
2018-03-20T22:47:07.935Z,52.10
2018-03-20T22:49:36.208Z,52.10
2018-03-20T22:52:05.274Z,52.20
2018-03-20T22:54:33.577Z,52.20
2018-03-20T22:57:02.641Z,52.00
2018-03-20T22:59:30.960Z,51.90
2018-03-20T23:02:00.010Z,52.50
2018-03-20T23:04:28.298Z,52.40
2018-03-20T23:06:56.607Z,52.40
2018-03-20T23:09:25.663Z,52.20
2018-03-20T23:11:53.933Z,52.20
2018-03-20T23:14:22.235Z,51.90
2018-03-20T23:16:51.280Z,51.90
2018-03-20T23:19:19.572Z,51.80
2018-03-20T23:21:47.866Z,53.00
2018-03-20T23:24:16.108Z,52.50
2018-03-20T23:26:44.406Z,52.30
2018-03-20T23:29:12.691Z,52.70
2018-03-20T23:31:40.958Z,52.10
2018-03-20T23:34:09.245Z,52.10
2018-03-20T23:36:37.557Z,52.10
2018-03-20T23:39:06.650Z,51.60
2018-03-20T23:41:35.672Z,51.90
2018-03-20T23:44:03.976Z,51.90
2018-03-20T23:46:32.209Z,52.20
2018-03-20T23:49:01.240Z,52.00
2018-03-20T23:51:29.544Z,51.90
2018-03-20T23:53:57.878Z,52.10
2018-03-20T23:56:26.171Z,52.30
2018-03-20T23:58:54.465Z,51.80
